Time;durP1;ratioP1;P1;durP2;ratioP2;P2;SDS_P1;SDS_P2;PMS_P1;PMS_P2;Temp;Humidity;BMP_temperature;BMP_pressure;BME280_temperature;BME280_humidity;BME280_pressure;Samples;Min_cycle;Max_cycle;Signal;HPM_P1;HPM_P2
2022/06/27 00:02:06;;;;;;;;;;;22.90;99.90;;;;;;5045985;28;19956;-71
2022/06/27 00:04:33;;;;;;;;;;;22.90;99.90;;;;;;5045817;28;20184;-71
2022/06/27 00:06:59;;;;;;;;;;;22.90;99.90;;;;;;5045709;28;20260;-71
2022/06/27 00:09:26;;;;;;;;;;;22.80;99.90;;;;;;5045772;28;20235;-71
2022/06/27 00:11:53;;;;;;;;;;;22.70;99.90;;;;;;5045959;28;20137;-71
2022/06/27 00:14:19;;;;;;;;;;;22.70;99.90;;;;;;5044859;28;20094;-71
2022/06/27 00:16:47;;;;;;;;;;;22.60;99.90;;;;;;5043376;28;20236;-71
2022/06/27 00:19:14;;;;;;;;;;;22.60;99.90;;;;;;5034719;28;19943;-71
2022/06/27 00:21:40;;;;;;;;;;;22.50;99.90;;;;;;5035298;28;20231;-71
2022/06/27 00:24:07;;;;;;;;;;;22.50;99.90;;;;;;5045404;28;19956;-71
2022/06/27 00:26:34;;;;;;;;;;;22.50;99.90;;;;;;5045697;28;19929;-71
2022/06/27 00:29:01;;;;;;;;;;;22.40;99.90;;;;;;5045646;28;20051;-71
2022/06/27 00:31:27;;;;;;;;;;;22.40;99.90;;;;;;5045680;28;19928;-71
2022/06/27 00:33:55;;;;;;;;;;;22.20;99.90;;;;;;5045322;28;19959;-70
2022/06/27 00:36:22;;;;;;;;;;;22.10;99.90;;;;;;5045094;28;19921;-70
2022/06/27 00:38:49;;;;;;;;;;;22.00;99.90;;;;;;5045419;28;19928;-70
2022/06/27 00:41:15;;;;;;;;;;;21.90;99.90;;;;;;5045074;28;19928;-71
2022/06/27 00:43:42;;;;;;;;;;;21.90;99.90;;;;;;5045113;28;20209;-71
2022/06/27 00:46:09;;;;;;;;;;;21.90;99.90;;;;;;5045267;28;19963;-71
2022/06/27 00:48:36;;;;;;;;;;;22.00;99.90;;;;;;5045049;28;20208;-71
2022/06/27 00:51:04;;;;;;;;;;;22.00;99.90;;;;;;5044324;28;19956;-71
2022/06/27 00:53:32;;;;;;;;;;;21.90;99.90;;;;;;5044837;28;20127;-71
2022/06/27 00:55:59;;;;;;;;;;;22.00;99.90;;;;;;5045163;28;19941;-71
2022/06/27 00:58:25;;;;;;;;;;;22.00;99.90;;;;;;5045169;28;19984;-71
2022/06/27 01:00:52;;;;;;;;;;;22.00;99.90;;;;;;5044952;28;19956;-71
2022/06/27 01:03:19;;;;;;;;;;;22.00;99.90;;;;;;5044637;28;19921;-71
2022/06/27 01:05:52;;;;;;;;;;;21.90;99.90;;;;;;5044547;28;19956;-71
2022/06/27 01:08:20;;;;;;;;;;;21.90;99.90;;;;;;5045092;28;19921;-70
2022/06/27 01:10:47;;;;;;;;;;;21.80;99.90;;;;;;5044889;28;20169;-72
2022/06/27 01:13:14;;;;;;;;;;;21.70;99.90;;;;;;5044579;28;19928;-71
2022/06/27 01:15:41;;;;;;;;;;;21.50;99.90;;;;;;5043822;28;20295;-71
2022/06/27 01:18:08;;;;;;;;;;;21.40;99.90;;;;;;5044814;28;20228;-71
2022/06/27 01:20:35;;;;;;;;;;;21.40;99.90;;;;;;5044291;28;19984;-71
2022/06/27 01:23:03;;;;;;;;;;;21.30;99.90;;;;;;5044393;28;19943;-71
2022/06/27 01:25:30;;;;;;;;;;;21.30;99.90;;;;;;5044660;28;19984;-71
2022/06/27 01:27:57;;;;;;;;;;;21.20;99.90;;;;;;5044446;28;20003;-71
2022/06/27 01:30:23;;;;;;;;;;;21.10;99.90;;;;;;5044049;28;19963;-71
2022/06/27 01:32:50;;;;;;;;;;;21.00;99.90;;;;;;5044082;28;19954;-71
2022/06/27 01:35:17;;;;;;;;;;;21.10;99.90;;;;;;5044515;28;19928;-71
2022/06/27 01:37:44;;;;;;;;;;;21.10;99.90;;;;;;5044299;28;19921;-71
2022/06/27 01:40:12;;;;;;;;;;;21.10;99.90;;;;;;5044116;28;19927;-71
2022/06/27 01:42:39;;;;;;;;;;;21.20;99.90;;;;;;5043642;28;19960;-71
2022/06/27 01:45:06;;;;;;;;;;;21.30;99.90;;;;;;5043652;28;19944;-70
2022/06/27 01:47:32;;;;;;;;;;;21.30;99.90;;;;;;5044003;28;19956;-71
2022/06/27 01:49:59;;;;;;;;;;;21.40;99.90;;;;;;5043233;28;19921;-71
2022/06/27 01:52:28;;;;;;;;;;;21.50;99.90;;;;;;5043624;28;20240;-71
2022/06/27 01:54:54;;;;;;;;;;;21.40;99.90;;;;;;5044088;28;19980;-71
2022/06/27 01:57:23;;;;;;;;;;;21.40;99.90;;;;;;5043699;28;19961;-71
2022/06/27 01:59:50;;;;;;;;;;;21.40;99.90;;;;;;5043922;28;19956;-71
2022/06/27 02:02:16;;;;;;;;;;;21.40;99.90;;;;;;5043602;28;20188;-71
2022/06/27 02:04:43;;;;;;;;;;;21.30;99.90;;;;;;5043695;28;19956;-71
2022/06/27 02:07:12;;;;;;;;;;;21.10;99.90;;;;;;5043841;28;19953;-71
2022/06/27 02:09:38;;;;;;;;;;;21.00;99.90;;;;;;5043623;28;19956;-71
2022/06/27 02:12:19;;;;;;;;;;;20.90;99.90;;;;;;5043325;28;20251;-71
2022/06/27 02:14:48;;;;;;;;;;;20.70;99.90;;;;;;5043928;28;20036;-72
2022/06/27 02:17:15;;;;;;;;;;;20.50;99.90;;;;;;5041622;28;19929;-72
2022/06/27 02:19:42;;;;;;;;;;;20.30;99.90;;;;;;5036700;28;20280;-72
2022/06/27 02:22:09;;;;;;;;;;;20.10;99.90;;;;;;5042073;28;19921;-72
2022/06/27 02:24:35;;;;;;;;;;;19.90;99.90;;;;;;5043387;28;19947;-72
2022/06/27 02:27:03;;;;;;;;;;;19.80;99.90;;;;;;5042735;28;19967;-72
2022/06/27 02:29:29;;;;;;;;;;;19.70;99.90;;;;;;5040780;28;19984;-72
2022/06/27 02:31:59;;;;;;;;;;;19.60;99.90;;;;;;5040540;28;19963;-71
2022/06/27 02:34:25;;;;;;;;;;;19.50;99.90;;;;;;5033809;28;20280;-71
2022/06/27 02:36:52;;;;;;;;;;;19.40;99.90;;;;;;5040274;28;19964;-71
2022/06/27 02:39:21;;;;;;;;;;;19.30;99.90;;;;;;5035121;28;19960;-72
2022/06/27 02:41:49;;;;;;;;;;;19.20;99.90;;;;;;5039880;28;19960;-70
2022/06/27 02:44:16;;;;;;;;;;;19.20;99.90;;;;;;5043001;28;19932;-71
2022/06/27 02:46:42;;;;;;;;;;;19.10;99.90;;;;;;5043146;28;19964;-70
2022/06/27 02:49:11;;;;;;;;;;;19.00;99.90;;;;;;5043230;28;19980;-71
2022/06/27 02:51:41;;;;;;;;;;;19.00;99.90;;;;;;5042648;28;19992;-70
2022/06/27 02:54:10;;;;;;;;;;;18.90;99.90;;;;;;5042819;28;19941;-71
2022/06/27 02:56:41;;;;;;;;;;;18.90;99.90;;;;;;5042799;28;19961;-71
2022/06/27 02:59:10;;;;;;;;;;;18.90;99.90;;;;;;5042632;28;20110;-71
2022/06/27 03:01:38;;;;;;;;;;;18.80;99.90;;;;;;5043136;28;19957;-71
2022/06/27 03:04:05;;;;;;;;;;;18.80;99.90;;;;;;5042598;28;19979;-71
2022/06/27 03:06:33;;;;;;;;;;;18.80;99.90;;;;;;5043272;28;19929;-71
2022/06/27 03:09:00;;;;;;;;;;;18.70;99.90;;;;;;5043148;28;20208;-71
2022/06/27 03:11:27;;;;;;;;;;;18.50;99.90;;;;;;5042829;28;19965;-70
2022/06/27 03:13:54;;;;;;;;;;;18.40;99.90;;;;;;5042738;28;19961;-71
2022/06/27 03:16:22;;;;;;;;;;;18.20;99.90;;;;;;5042713;28;19957;-70
2022/06/27 03:18:49;;;;;;;;;;;18.30;99.90;;;;;;5042757;28;19921;-70
2022/06/27 03:21:17;;;;;;;;;;;18.30;99.90;;;;;;5042881;28;19921;-70
2022/06/27 03:23:47;;;;;;;;;;;18.30;99.90;;;;;;5042714;28;19975;-70
2022/06/27 03:26:13;;;;;;;;;;;18.40;99.90;;;;;;5042672;28;20197;-70
2022/06/27 03:28:40;;;;;;;;;;;18.50;99.90;;;;;;5042302;28;19959;-70
2022/06/27 03:31:07;;;;;;;;;;;18.50;99.90;;;;;;5042465;28;19921;-70
2022/06/27 03:33:34;;;;;;;;;;;18.60;99.90;;;;;;5042283;28;19995;-70
2022/06/27 03:36:00;;;;;;;;;;;18.70;99.90;;;;;;5042802;28;19959;-70
2022/06/27 03:38:27;;;;;;;;;;;18.70;99.90;;;;;;5043527;28;19963;-70
2022/06/27 03:40:55;;;;;;;;;;;18.80;99.90;;;;;;5046028;28;19920;-70
2022/06/27 03:43:22;;;;;;;;;;;18.80;99.90;;;;;;5046471;28;19956;-70
2022/06/27 03:45:49;;;;;;;;;;;18.90;99.90;;;;;;5046708;28;19964;-70
2022/06/27 03:50:56;;;;;;;;;;;18.90;99.90;;;;;;5044509;28;19968;-71
2022/06/27 03:53:23;;;;;;;;;;;18.90;99.90;;;;;;5045988;28;19988;-71
2022/06/27 03:55:49;;;;;;;;;;;19.00;99.90;;;;;;5045891;28;19927;-71
2022/06/27 03:58:17;;;;;;;;;;;18.90;99.90;;;;;;5045858;28;19995;-71
2022/06/27 04:00:44;;;;;;;;;;;18.90;99.90;;;;;;5046300;28;19972;-71
2022/06/27 04:03:11;;;;;;;;;;;19.00;99.90;;;;;;5046125;28;19921;-71
2022/06/27 04:05:38;;;;;;;;;;;19.00;99.90;;;;;;5045628;28;19957;-71
2022/06/27 04:08:05;;;;;;;;;;;19.00;99.90;;;;;;5046163;28;20180;-71
2022/06/27 04:10:31;;;;;;;;;;;19.10;99.90;;;;;;5045684;28;19975;-71
2022/06/27 04:12:58;;;;;;;;;;;19.10;99.90;;;;;;5045556;28;19952;-71
2022/06/27 04:15:26;;;;;;;;;;;19.20;99.90;;;;;;5043868;28;19984;-71
2022/06/27 04:17:53;;;;;;;;;;;19.20;99.90;;;;;;5044166;28;20211;-70
2022/06/27 04:20:21;;;;;;;;;;;19.20;99.90;;;;;;5041253;28;20260;-71
2022/06/27 04:22:47;;;;;;;;;;;19.20;99.90;;;;;;5041971;28;19948;-71
2022/06/27 04:25:14;;;;;;;;;;;19.20;99.90;;;;;;5045590;28;19921;-72
2022/06/27 04:27:41;;;;;;;;;;;19.20;99.90;;;;;;5045036;28;19999;-71
2022/06/27 04:30:09;;;;;;;;;;;19.20;99.90;;;;;;5040328;28;19952;-72
2022/06/27 04:32:37;;;;;;;;;;;19.20;99.90;;;;;;5037515;28;20108;-70
2022/06/27 04:35:04;;;;;;;;;;;19.20;99.90;;;;;;5041372;28;19921;-68
2022/06/27 04:37:31;;;;;;;;;;;19.30;99.90;;;;;;5045556;28;19949;-71
2022/06/27 04:39:57;;;;;;;;;;;19.30;99.90;;;;;;5045696;28;19921;-72
2022/06/27 04:42:24;;;;;;;;;;;19.40;99.90;;;;;;5045330;28;19956;-71
2022/06/27 04:44:51;;;;;;;;;;;19.40;99.90;;;;;;5045400;28;20251;-71
2022/06/27 04:47:19;;;;;;;;;;;19.50;99.90;;;;;;5044384;28;19959;-71
2022/06/27 04:49:47;;;;;;;;;;;19.50;99.90;;;;;;5045158;28;20108;-72
2022/06/27 04:52:15;;;;;;;;;;;19.50;99.90;;;;;;5045261;28;19921;-71
2022/06/27 04:54:43;;;;;;;;;;;19.50;99.90;;;;;;5045570;28;19984;-71
2022/06/27 04:57:09;;;;;;;;;;;19.60;99.90;;;;;;5045563;28;19985;-71
2022/06/27 04:59:36;;;;;;;;;;;19.60;99.90;;;;;;5045492;28;19921;-70
2022/06/27 05:02:03;;;;;;;;;;;19.60;99.90;;;;;;5045224;28;19921;-70
2022/06/27 05:04:30;;;;;;;;;;;19.60;99.90;;;;;;5045385;28;19964;-71
2022/06/27 05:06:58;;;;;;;;;;;19.60;99.90;;;;;;5045477;28;20097;-70
2022/06/27 05:09:26;;;;;;;;;;;19.50;99.90;;;;;;5045360;28;19928;-69
2022/06/27 05:11:54;;;;;;;;;;;19.50;99.90;;;;;;5044901;28;19921;-68
2022/06/27 05:14:20;;;;;;;;;;;19.50;99.90;;;;;;5045171;28;19964;-68
2022/06/27 05:16:48;;;;;;;;;;;19.50;99.90;;;;;;5045297;28;19975;-68
2022/06/27 05:19:15;;;;;;;;;;;19.50;99.90;;;;;;5045333;28;19925;-68
2022/06/27 05:21:41;;;;;;;;;;;19.40;99.90;;;;;;5044773;28;19921;-68
2022/06/27 05:24:12;;;;;;;;;;;19.40;99.90;;;;;;5044249;28;19952;-68
2022/06/27 05:26:38;;;;;;;;;;;19.40;99.90;;;;;;5045181;28;19927;-69
2022/06/27 05:29:05;;;;;;;;;;;19.40;99.90;;;;;;5045118;28;19956;-68
2022/06/27 05:31:32;;;;;;;;;;;19.40;99.90;;;;;;5044546;28;19959;-68
2022/06/27 05:33:59;;;;;;;;;;;19.40;99.90;;;;;;5044356;28;19921;-68
2022/06/27 05:36:26;;;;;;;;;;;19.40;99.90;;;;;;5044946;28;19921;-68
2022/06/27 05:38:53;;;;;;;;;;;19.50;99.90;;;;;;5044842;28;20112;-68
2022/06/27 05:41:21;;;;;;;;;;;19.50;99.90;;;;;;5044586;28;19921;-69
2022/06/27 05:43:48;;;;;;;;;;;19.50;99.90;;;;;;5044272;28;19921;-69
2022/06/27 05:46:15;;;;;;;;;;;19.50;99.90;;;;;;5044535;28;19922;-68
2022/06/27 05:48:42;;;;;;;;;;;19.60;99.90;;;;;;5044349;28;19921;-68
2022/06/27 05:51:09;;;;;;;;;;;19.70;99.90;;;;;;5044122;28;19983;-68
2022/06/27 05:53:38;;;;;;;;;;;19.70;99.90;;;;;;5043486;28;19992;-69
2022/06/27 05:56:05;;;;;;;;;;;19.70;99.90;;;;;;5043488;28;20201;-68
2022/06/27 05:58:33;;;;;;;;;;;19.80;99.90;;;;;;5043404;28;19921;-68
2022/06/27 06:01:00;;;;;;;;;;;19.70;99.90;;;;;;5043142;28;19921;-68
2022/06/27 06:03:26;;;;;;;;;;;19.70;99.90;;;;;;5043826;28;19952;-68
2022/06/27 06:05:54;;;;;;;;;;;19.80;99.90;;;;;;5043901;28;19952;-68
2022/06/27 06:08:21;;;;;;;;;;;19.90;99.90;;;;;;5024070;28;19968;-68
2022/06/27 06:10:48;;;;;;;;;;;19.90;99.90;;;;;;5023789;28;19968;-69
2022/06/27 06:13:15;;;;;;;;;;;20.00;99.90;;;;;;5023665;28;19988;-69
2022/06/27 06:15:43;;;;;;;;;;;20.00;99.90;;;;;;5043090;28;19928;-68
2022/06/27 06:18:09;;;;;;;;;;;20.00;99.90;;;;;;5043734;28;19929;-68
2022/06/27 06:20:37;;;;;;;;;;;20.10;99.90;;;;;;5043507;28;19984;-68
2022/06/27 06:23:03;;;;;;;;;;;20.10;99.90;;;;;;5043189;28;19921;-69
2022/06/27 06:25:30;;;;;;;;;;;20.10;99.90;;;;;;5042710;28;20224;-68
2022/06/27 06:28:01;;;;;;;;;;;20.10;99.90;;;;;;5042655;28;19991;-68
2022/06/27 06:30:29;;;;;;;;;;;20.10;99.90;;;;;;5042986;28;19975;-68
2022/06/27 06:33:02;;;;;;;;;;;20.10;99.90;;;;;;5042754;28;20284;-69
2022/06/27 06:35:29;;;;;;;;;;;20.20;99.90;;;;;;5043317;28;19921;-68
2022/06/27 06:37:56;;;;;;;;;;;20.20;99.90;;;;;;5042937;28;19928;-70
2022/06/27 06:40:23;;;;;;;;;;;20.30;99.90;;;;;;5042852;28;19960;-68
2022/06/27 06:42:50;;;;;;;;;;;20.50;99.90;;;;;;5042504;28;20167;-68
2022/06/27 06:45:16;;;;;;;;;;;20.50;99.90;;;;;;5030798;28;19936;-68
2022/06/27 06:47:44;;;;;;;;;;;20.60;99.90;;;;;;5043461;28;19985;-68
2022/06/27 06:50:13;;;;;;;;;;;20.70;99.90;;;;;;5043198;28;19935;-67
2022/06/27 06:52:41;;;;;;;;;;;20.80;99.90;;;;;;5042844;28;19921;-68
2022/06/27 06:55:09;;;;;;;;;;;20.80;99.90;;;;;;5042995;28;19953;-68
2022/06/27 06:57:37;;;;;;;;;;;20.90;99.90;;;;;;5042775;28;19921;-68
2022/06/27 07:00:04;;;;;;;;;;;21.00;99.90;;;;;;5043145;28;19953;-69
2022/06/27 07:02:31;;;;;;;;;;;21.00;99.90;;;;;;5042656;28;19940;-68
2022/06/27 07:04:58;;;;;;;;;;;21.10;99.90;;;;;;5042177;28;19928;-68
2022/06/27 07:07:26;;;;;;;;;;;21.10;99.90;;;;;;5042817;28;19921;-68
2022/06/27 07:09:53;;;;;;;;;;;21.10;99.90;;;;;;5042865;28;19928;-68
2022/06/27 07:12:20;;;;;;;;;;;21.20;99.90;;;;;;5042078;28;20227;-68
2022/06/27 07:14:47;;;;;;;;;;;21.30;99.90;;;;;;5045163;28;20231;-68
2022/06/27 07:17:13;;;;;;;;;;;21.40;99.90;;;;;;5046896;28;19929;-68
2022/06/27 07:19:48;;;;;;;;;;;21.40;99.90;;;;;;5046831;28;19927;-68
2022/06/27 07:22:15;;;;;;;;;;;21.50;99.90;;;;;;5046267;28;20242;-68
2022/06/27 07:24:43;;;;;;;;;;;21.60;99.90;;;;;;5045733;28;19927;-69
2022/06/27 07:27:11;;;;;;;;;;;21.70;99.90;;;;;;5046779;28;20113;-68
2022/06/27 07:29:37;;;;;;;;;;;21.80;99.90;;;;;;5046902;28;19924;-68
2022/06/27 07:32:05;;;;;;;;;;;21.80;99.90;;;;;;5046180;28;19921;-68
2022/06/27 07:34:32;;;;;;;;;;;21.90;99.90;;;;;;5046439;28;19921;-69
2022/06/27 07:36:59;;;;;;;;;;;21.90;99.90;;;;;;5046874;28;19956;-68
2022/06/27 07:39:26;;;;;;;;;;;21.90;99.90;;;;;;5045728;28;19920;-68
2022/06/27 07:41:54;;;;;;;;;;;22.10;99.90;;;;;;5046002;28;19967;-68
2022/06/27 07:44:24;;;;;;;;;;;22.10;99.90;;;;;;5046182;28;19927;-68
2022/06/27 07:46:51;;;;;;;;;;;22.00;99.90;;;;;;5046314;28;19959;-67
2022/06/27 07:49:17;;;;;;;;;;;22.00;99.90;;;;;;5046351;28;19967;-68
2022/06/27 07:51:44;;;;;;;;;;;22.00;99.90;;;;;;5046145;28;19984;-67
2022/06/27 07:54:11;;;;;;;;;;;22.10;99.90;;;;;;5046132;28;19921;-68
2022/06/27 07:56:38;;;;;;;;;;;22.10;99.90;;;;;;5046225;28;19921;-69
2022/06/27 07:59:07;;;;;;;;;;;22.10;99.90;;;;;;5046082;28;19921;-67
2022/06/27 08:01:35;;;;;;;;;;;21.90;99.90;;;;;;5045675;28;20163;-68
2022/06/27 08:04:02;;;;;;;;;;;21.90;99.90;;;;;;5044896;28;20201;-68
2022/06/27 08:06:29;;;;;;;;;;;21.90;99.90;;;;;;5045923;28;19988;-68
2022/06/27 08:08:57;;;;;;;;;;;21.90;99.90;;;;;;5045142;28;20182;-68
2022/06/27 08:11:25;;;;;;;;;;;21.90;99.90;;;;;;5046238;28;19921;-68
2022/06/27 08:13:53;;;;;;;;;;;21.90;99.90;;;;;;5045552;28;19952;-68
2022/06/27 08:16:22;;;;;;;;;;;21.90;99.90;;;;;;5045842;28;19977;-68
2022/06/27 08:18:50;;;;;;;;;;;21.90;99.90;;;;;;5043559;28;19929;-68
2022/06/27 08:21:19;;;;;;;;;;;21.90;99.90;;;;;;5045115;28;19921;-68
2022/06/27 08:23:46;;;;;;;;;;;21.90;99.90;;;;;;5045400;28;20138;-68
2022/06/27 08:26:13;;;;;;;;;;;22.00;99.90;;;;;;5045292;28;19957;-68
2022/06/27 08:28:41;;;;;;;;;;;21.90;99.90;;;;;;5046982;28;19928;-69
2022/06/27 08:31:08;;;;;;;;;;;21.90;99.90;;;;;;5057471;22;19971;-67
2022/06/27 08:33:36;;;;;;;;;;;21.90;99.90;;;;;;5004973;28;19976;-68
2022/06/27 08:36:04;;;;;;;;;;;22.00;99.90;;;;;;5005669;28;19949;-67
2022/06/27 08:38:39;;;;;;;;;;;21.90;99.90;;;;;;5005891;28;19997;-68
2022/06/27 08:41:07;;;;;;;;;;;21.80;99.90;;;;;;5005903;28;19929;-67
2022/06/27 08:43:34;;;;;;;;;;;21.70;99.90;;;;;;5005099;28;20004;-67
2022/06/27 08:46:01;;;;;;;;;;;21.70;99.90;;;;;;5005681;28;19930;-67
2022/06/27 08:48:28;;;;;;;;;;;21.80;99.90;;;;;;5005983;28;19955;-67
2022/06/27 08:50:59;;;;;;;;;;;21.80;99.90;;;;;;5005891;28;19922;-67
2022/06/27 08:53:26;;;;;;;;;;;21.80;99.90;;;;;;5005922;28;19929;-66
2022/06/27 08:55:52;;;;;;;;;;;21.90;99.90;;;;;;5005715;28;19922;-67
2022/06/27 08:58:20;;;;;;;;;;;21.90;99.90;;;;;;5005419;28;19988;-67
2022/06/27 09:00:47;;;;;;;;;;;21.90;99.90;;;;;;5005465;28;19985;-67
2022/06/27 09:03:13;;;;;;;;;;;22.00;99.90;;;;;;5005512;28;19945;-67
2022/06/27 09:05:40;;;;;;;;;;;22.00;99.90;;;;;;5005190;28;19926;-67
2022/06/27 09:08:09;;;;;;;;;;;22.10;99.90;;;;;;5005382;28;20027;-67
2022/06/27 09:10:36;;;;;;;;;;;22.20;99.90;;;;;;5005275;28;19922;-68
2022/06/27 09:13:05;;;;;;;;;;;22.30;99.90;;;;;;5004594;28;19976;-67
2022/06/27 09:15:45;;;;;;;;;;;22.30;99.90;;;;;;5005382;28;19944;-67
2022/06/27 09:18:13;;;;;;;;;;;22.30;99.90;;;;;;5005163;28;19925;-68
2022/06/27 09:20:47;;;;;;;;;;;22.30;99.90;;;;;;5004980;28;19988;-67
2022/06/27 09:23:32;;;;;;;;;;;22.40;99.90;;;;;;5004512;28;19929;-67
2022/06/27 09:26:00;;;;;;;;;;;22.50;99.90;;;;;;5005077;28;19922;-67
2022/06/27 09:28:41;;;;;;;;;;;22.50;99.90;;;;;;5004841;28;19997;-67
2022/06/27 09:31:10;;;;;;;;;;;22.50;99.90;;;;;;5005110;28;20001;-67
2022/06/27 09:33:38;;;;;;;;;;;22.50;99.90;;;;;;5004702;28;19929;-67
2022/06/27 09:36:11;;;;;;;;;;;22.50;99.90;;;;;;5004514;28;19981;-67
2022/06/27 09:38:43;;;;;;;;;;;22.60;99.90;;;;;;5005263;28;19921;-66
2022/06/27 09:41:11;;;;;;;;;;;22.70;99.90;;;;;;5005239;28;19922;-67
2022/06/27 09:43:40;;;;;;;;;;;22.70;99.90;;;;;;5004811;28;19921;-67
2022/06/27 09:46:08;;;;;;;;;;;22.80;99.90;;;;;;5005428;28;19922;-66
2022/06/27 09:48:37;;;;;;;;;;;22.80;99.90;;;;;;5005071;28;19929;-67
2022/06/27 09:51:04;;;;;;;;;;;22.80;99.90;;;;;;5005051;28;20153;-67
2022/06/27 09:53:31;;;;;;;;;;;22.90;99.90;;;;;;5005018;28;19929;-68
2022/06/27 09:56:01;;;;;;;;;;;22.90;99.90;;;;;;5004676;28;19989;-67
2022/06/27 09:58:29;;;;;;;;;;;23.00;99.90;;;;;;5004212;28;19929;-67
2022/06/27 10:00:55;;;;;;;;;;;23.10;99.90;;;;;;5004077;28;19922;-67
2022/06/27 10:03:23;;;;;;;;;;;23.20;99.90;;;;;;5004380;28;19957;-67
2022/06/27 10:05:50;;;;;;;;;;;23.30;99.90;;;;;;5003933;28;19945;-67
2022/06/27 10:08:16;;;;;;;;;;;23.40;99.90;;;;;;5004410;28;19953;-67
2022/06/27 10:11:06;;;;;;;;;;;23.40;99.90;;;;;;5004140;28;20120;-67
2022/06/27 10:13:34;;;;;;;;;;;23.40;99.90;;;;;;5000538;28;19929;-67
2022/06/27 10:16:06;;;;;;;;;;;23.50;99.90;;;;;;5004234;28;19926;-67
2022/06/27 10:18:48;;;;;;;;;;;23.50;99.90;;;;;;5002506;28;19992;-68
2022/06/27 10:21:29;;;;;;;;;;;23.60;99.90;;;;;;4998143;28;19989;-68
2022/06/27 10:24:15;;;;;;;;;;;23.60;99.90;;;;;;4997415;28;19929;-67
2022/06/27 10:26:42;;;;;;;;;;;23.80;99.90;;;;;;5004380;28;19961;-67
2022/06/27 10:29:29;;;;;;;;;;;23.80;99.90;;;;;;5003911;28;20278;-67
2022/06/27 10:31:57;;;;;;;;;;;23.80;99.90;;;;;;4984808;28;19953;-67
2022/06/27 10:34:43;;;;;;;;;;;23.80;99.90;;;;;;4999027;28;19929;-67
2022/06/27 10:37:28;;;;;;;;;;;23.80;99.90;;;;;;5003917;28;19922;-67
2022/06/27 10:40:15;;;;;;;;;;;23.80;99.90;;;;;;5003201;28;19973;-67
2022/06/27 10:42:47;;;;;;;;;;;23.70;99.90;;;;;;4993520;28;19984;-67
2022/06/27 10:45:23;;;;;;;;;;;23.70;99.90;;;;;;4995146;28;19925;-67
2022/06/27 10:47:52;;;;;;;;;;;23.60;99.90;;;;;;4994600;28;20116;-67
2022/06/27 10:50:20;;;;;;;;;;;23.60;99.90;;;;;;4994288;28;19922;-67
2022/06/27 10:52:47;;;;;;;;;;;23.60;99.90;;;;;;4998315;28;20181;-67
2022/06/27 10:55:23;;;;;;;;;;;23.70;99.90;;;;;;5003839;28;20325;-67
2022/06/27 10:57:50;;;;;;;;;;;23.80;99.90;;;;;;4995568;28;19922;-67
2022/06/27 11:00:36;;;;;;;;;;;23.80;99.90;;;;;;4984636;28;19954;-67
2022/06/27 11:03:05;;;;;;;;;;;23.80;99.90;;;;;;4997832;28;19945;-67
2022/06/27 11:05:51;;;;;;;;;;;23.80;99.90;;;;;;4994005;28;20172;-67
2022/06/27 11:08:17;;;;;;;;;;;23.80;99.90;;;;;;4995966;28;19922;-67
2022/06/27 11:10:45;;;;;;;;;;;23.70;99.90;;;;;;4995682;28;19946;-67
2022/06/27 11:13:12;;;;;;;;;;;23.70;99.90;;;;;;5003086;28;20162;-67
2022/06/27 11:15:50;;;;;;;;;;;23.70;99.90;;;;;;5001321;28;19985;-67
2022/06/27 11:18:18;;;;;;;;;;;23.70;99.90;;;;;;4984510;28;19981;-67
2022/06/27 11:20:45;;;;;;;;;;;23.70;99.90;;;;;;4984395;28;19972;-68
2022/06/27 11:23:12;;;;;;;;;;;23.70;99.90;;;;;;4983961;28;19929;-67
2022/06/27 11:25:41;;;;;;;;;;;23.80;99.90;;;;;;4984222;28;19989;-67
2022/06/27 11:33:40;;;;;;;;;;;23.90;99.90;;;;;;5003300;28;19924;-68
2022/06/27 11:36:06;;;;;;;;;;;23.80;99.90;;;;;;5003664;28;19964;-68
2022/06/27 11:38:42;;;;;;;;;;;23.80;99.90;;;;;;5002991;28;19957;-68
2022/06/27 11:41:09;;;;;;;;;;;23.90;99.90;;;;;;5003796;28;19960;-67
2022/06/27 11:44:02;;;;;;;;;;;24.10;99.90;;;;;;5003202;28;19964;-68
2022/06/27 11:46:31;;;;;;;;;;;24.20;99.90;;;;;;5003541;28;20247;-67
2022/06/27 11:49:01;;;;;;;;;;;24.20;99.90;;;;;;5003427;28;19980;-68
2022/06/27 11:51:29;;;;;;;;;;;24.20;99.90;;;;;;5003563;28;20093;-67
2022/06/27 11:53:57;;;;;;;;;;;24.10;99.90;;;;;;5003071;28;19922;-68
2022/06/27 11:56:24;;;;;;;;;;;24.10;99.90;;;;;;5003339;28;19960;-68
2022/06/27 11:58:52;;;;;;;;;;;24.00;99.90;;;;;;5003752;28;19928;-67
2022/06/27 12:01:19;;;;;;;;;;;24.00;99.90;;;;;;4995489;28;19922;-68
2022/06/27 12:04:04;;;;;;;;;;;24.00;99.90;;;;;;4987406;28;19993;-68
2022/06/27 12:06:32;;;;;;;;;;;24.00;99.90;;;;;;4987558;28;19930;-67
2022/06/27 12:08:59;;;;;;;;;;;23.90;99.90;;;;;;4987597;28;19929;-68
2022/06/27 12:11:29;;;;;;;;;;;23.90;99.90;;;;;;5004305;28;19983;-66
2022/06/27 12:13:59;;;;;;;;;;;23.80;99.90;;;;;;5006470;28;19985;-66
2022/06/27 12:16:26;;;;;;;;;;;23.60;99.90;;;;;;5006586;28;19976;-66
2022/06/27 12:18:53;;;;;;;;;;;23.50;99.90;;;;;;5006907;28;19922;-66
2022/06/27 12:21:19;;;;;;;;;;;23.50;99.90;;;;;;5006693;28;19953;-66
2022/06/27 12:23:48;;;;;;;;;;;23.60;99.90;;;;;;5006285;28;19921;-68
2022/06/27 12:26:14;;;;;;;;;;;23.80;99.90;;;;;;5006822;28;19922;-70
2022/06/27 12:28:41;;;;;;;;;;;23.60;99.90;;;;;;5006636;28;19964;-68
2022/06/27 12:31:08;;;;;;;;;;;23.60;99.90;;;;;;5006090;28;20175;-68
2022/06/27 12:33:34;;;;;;;;;;;23.60;99.90;;;;;;5005820;28;19964;-69
2022/06/27 12:36:01;;;;;;;;;;;23.70;99.90;;;;;;5006237;28;20148;-68
2022/06/27 12:38:28;;;;;;;;;;;23.50;99.90;;;;;;5004038;28;19960;-68
2022/06/27 12:41:11;;;;;;;;;;;23.50;99.90;;;;;;4997084;28;19934;-68
2022/06/27 12:43:38;;;;;;;;;;;23.50;99.90;;;;;;4997702;28;19925;-69
2022/06/27 12:46:05;;;;;;;;;;;23.50;99.90;;;;;;5005526;28;19928;-69
2022/06/27 12:48:32;;;;;;;;;;;23.50;99.90;;;;;;5005999;28;19969;-69
2022/06/27 12:50:59;;;;;;;;;;;23.60;99.90;;;;;;5005405;28;19922;-68
2022/06/27 12:53:26;;;;;;;;;;;23.60;99.90;;;;;;4991025;28;19929;-68
2022/06/27 12:55:53;;;;;;;;;;;23.60;99.90;;;;;;5005068;28;20233;-68
2022/06/27 12:58:21;;;;;;;;;;;23.70;99.90;;;;;;4998555;28;19922;-69
2022/06/27 13:00:48;;;;;;;;;;;23.80;99.90;;;;;;4996708;28;20240;-68
2022/06/27 13:03:15;;;;;;;;;;;24.00;99.90;;;;;;4997522;28;20086;-68
2022/06/27 13:05:42;;;;;;;;;;;23.90;99.90;;;;;;5005477;28;19989;-68
2022/06/27 13:08:08;;;;;;;;;;;23.90;99.90;;;;;;4992067;28;19930;-68
2022/06/27 13:10:35;;;;;;;;;;;23.90;99.90;;;;;;4999891;28;19934;-68
2022/06/27 13:13:02;;;;;;;;;;;24.00;99.90;;;;;;5001304;28;19964;-68
2022/06/27 13:15:31;;;;;;;;;;;23.90;99.90;;;;;;5004411;28;20256;-68
2022/06/27 13:17:58;;;;;;;;;;;24.00;99.90;;;;;;5005240;28;19922;-68
2022/06/27 13:20:25;;;;;;;;;;;24.00;99.90;;;;;;4988964;28;19925;-68
2022/06/27 13:22:52;;;;;;;;;;;24.10;99.90;;;;;;5004192;28;19929;-68
2022/06/27 13:25:19;;;;;;;;;;;24.30;99.90;;;;;;5004650;28;19965;-68
2022/06/27 13:27:46;;;;;;;;;;;24.30;99.90;;;;;;5004559;28;19922;-68
2022/06/27 13:30:12;;;;;;;;;;;24.50;99.90;;;;;;5004334;28;19949;-68
2022/06/27 13:32:40;;;;;;;;;;;24.80;99.90;;;;;;5000868;28;19949;-67
2022/06/27 13:35:08;;;;;;;;;;;25.00;99.90;;;;;;4985553;28;19922;-67
2022/06/27 13:37:35;;;;;;;;;;;25.00;99.90;;;;;;4985616;28;19953;-66
2022/06/27 13:40:02;;;;;;;;;;;24.80;99.90;;;;;;5000317;28;19922;-67
2022/06/27 13:42:28;;;;;;;;;;;24.70;99.90;;;;;;5003302;28;19929;-66
2022/06/27 13:44:55;;;;;;;;;;;24.60;99.90;;;;;;5004385;28;19956;-66
2022/06/27 13:47:22;;;;;;;;;;;24.60;99.90;;;;;;5004972;28;19929;-67
2022/06/27 13:49:50;;;;;;;;;;;24.70;99.90;;;;;;5001246;28;19965;-67
2022/06/27 13:52:18;;;;;;;;;;;24.70;99.90;;;;;;4995387;28;19929;-67
2022/06/27 13:54:45;;;;;;;;;;;24.60;99.90;;;;;;4984940;28;19949;-67
2022/06/27 13:57:11;;;;;;;;;;;24.60;99.90;;;;;;5000178;28;19953;-66
2022/06/27 13:59:38;;;;;;;;;;;24.70;99.90;;;;;;5004635;28;19943;-67
2022/06/27 14:02:05;;;;;;;;;;;25.00;99.90;;;;;;5002202;28;20025;-66
2022/06/27 14:04:33;;;;;;;;;;;25.40;99.90;;;;;;5004125;28;19922;-68
2022/06/27 14:09:57;;;;;;;;;;;26.10;99.90;;;;;;4944299;29;19923;-67
2022/06/27 14:12:23;;;;;;;;;;;26.10;99.90;;;;;;4989087;28;20229;-67
2022/06/27 14:14:50;;;;;;;;;;;25.90;99.90;;;;;;5004112;28;19921;-66
2022/06/27 14:17:17;;;;;;;;;;;25.60;99.90;;;;;;4993709;28;19961;-67
2022/06/27 14:19:44;;;;;;;;;;;25.40;99.90;;;;;;4991433;28;20310;-67
2022/06/27 14:22:12;;;;;;;;;;;25.10;99.90;;;;;;4984766;28;19922;-68
2022/06/27 14:24:39;;;;;;;;;;;24.90;99.90;;;;;;4993607;28;19953;-68
2022/06/27 14:27:06;;;;;;;;;;;24.80;99.90;;;;;;4995467;28;19964;-72
2022/06/27 14:29:33;;;;;;;;;;;24.70;99.90;;;;;;5002970;28;19981;-65
2022/06/27 14:31:59;;;;;;;;;;;24.50;99.90;;;;;;5001934;23;20228;-66
2022/06/27 14:34:26;;;;;;;;;;;24.50;99.90;;;;;;4990432;28;20278;-66